Flugplatz Dahlemer Binz

Für EDKV sind keine METAR/TAF Berichte vorhanden.
Es werden die Flugwettermeldungen vom Flugplatz Buchel Airport in 45 km Entfernung angezeigt.

Bericht für ETSB

vom 23.08. um 13:20 UTC

Wind 6 kt aus 90°

Sichtweite 10 km oder mehr

Temperatur 25.0°C

Taupunkt 9.0°C

Luftfeuchtigkeit 36%

Luftdruck 1025 hPa

ETSB 231320Z AUTO 09006KT 9999 // ////// 25/09 Q1025 ///

Prognose für ETSB

vom 23.08. um 00:00 UTC

Zwischen 00:00 UTC und 00:00 UTC

Wind 8 kt aus 90°

Sichtweite 10 km oder mehr

keine signifikanten Wettererscheinungen

gering bewölkt in 30000 ft

TAF AMD ETSB 231005Z 2310/2317 09008KT 9999 NSW FEW300 CANCEL 1020 BY ETGL
Impressum